sensor_id;sensor_type;location;lat;lon;timestamp;P1;durP1;ratioP1;P2;durP2;ratioP2
23496;SDS011;11925;48.122;11.560;2022-07-15T00:00:07;4.57;;;3.70;;
23496;SDS011;11925;48.122;11.560;2022-07-15T00:02:38;7.40;;;3.38;;
23496;SDS011;11925;48.122;11.560;2022-07-15T00:05:07;3.97;;;3.17;;
23496;SDS011;11925;48.122;11.560;2022-07-15T00:07:36;4.28;;;3.42;;
23496;SDS011;11925;48.122;11.560;2022-07-15T00:10:05;4.10;;;3.38;;
23496;SDS011;11925;48.122;11.560;2022-07-15T00:12:46;3.97;;;3.30;;
23496;SDS011;11925;48.122;11.560;2022-07-15T00:15:15;3.90;;;3.50;;
23496;SDS011;11925;48.122;11.560;2022-07-15T00:17:45;3.90;;;3.42;;
23496;SDS011;11925;48.122;11.560;2022-07-15T00:20:14;5.95;;;3.67;;
23496;SDS011;11925;48.122;11.560;2022-07-15T00:22:43;4.70;;;3.28;;
23496;SDS011;11925;48.122;11.560;2022-07-15T00:25:12;5.35;;;3.60;;
23496;SDS011;11925;48.122;11.560;2022-07-15T00:27:53;4.60;;;3.67;;
23496;SDS011;11925;48.122;11.560;2022-07-15T00:30:22;5.07;;;3.65;;
23496;SDS011;11925;48.122;11.560;2022-07-15T00:32:53;5.18;;;3.53;;
23496;SDS011;11925;48.122;11.560;2022-07-15T00:35:22;5.07;;;3.22;;
23496;SDS011;11925;48.122;11.560;2022-07-15T00:37:50;4.88;;;3.72;;
23496;SDS011;11925;48.122;11.560;2022-07-15T00:40:20;4.97;;;3.40;;
23496;SDS011;11925;48.122;11.560;2022-07-15T00:42:49;5.00;;;3.30;;
23496;SDS011;11925;48.122;11.560;2022-07-15T00:45:18;5.15;;;3.60;;
23496;SDS011;11925;48.122;11.560;2022-07-15T00:47:47;5.45;;;3.92;;
23496;SDS011;11925;48.122;11.560;2022-07-15T00:50:18;4.57;;;3.75;;
23496;SDS011;11925;48.122;11.560;2022-07-15T00:52:48;5.57;;;3.63;;
23496;SDS011;11925;48.122;11.560;2022-07-15T00:55:18;4.03;;;3.30;;
23496;SDS011;11925;48.122;11.560;2022-07-15T00:57:46;3.92;;;3.53;;
23496;SDS011;11925;48.122;11.560;2022-07-15T01:00:17;5.65;;;3.70;;
23496;SDS011;11925;48.122;11.560;2022-07-15T01:02:46;4.82;;;4.05;;
23496;SDS011;11925;48.122;11.560;2022-07-15T01:05:19;7.13;;;4.53;;
23496;SDS011;11925;48.122;11.560;2022-07-15T01:07:49;5.90;;;4.60;;
23496;SDS011;11925;48.122;11.560;2022-07-15T01:10:19;8.23;;;4.75;;
23496;SDS011;11925;48.122;11.560;2022-07-15T01:12:48;8.27;;;4.50;;
23496;SDS011;11925;48.122;11.560;2022-07-15T01:15:23;5.93;;;4.25;;
23496;SDS011;11925;48.122;11.560;2022-07-15T01:17:52;4.88;;;3.78;;
23496;SDS011;11925;48.122;11.560;2022-07-15T01:20:24;6.05;;;4.22;;
23496;SDS011;11925;48.122;11.560;2022-07-15T01:23:00;6.68;;;3.85;;
23496;SDS011;11925;48.122;11.560;2022-07-15T01:25:39;8.90;;;4.53;;
23496;SDS011;11925;48.122;11.560;2022-07-15T01:28:10;6.30;;;4.15;;
23496;SDS011;11925;48.122;11.560;2022-07-15T01:30:39;5.82;;;3.97;;
23496;SDS011;11925;48.122;11.560;2022-07-15T01:33:12;6.25;;;4.45;;
23496;SDS011;11925;48.122;11.560;2022-07-15T01:35:41;6.50;;;4.30;;
23496;SDS011;11925;48.122;11.560;2022-07-15T01:38:11;6.95;;;4.68;;
23496;SDS011;11925;48.122;11.560;2022-07-15T01:40:41;7.93;;;4.28;;
23496;SDS011;11925;48.122;11.560;2022-07-15T01:43:10;7.57;;;4.32;;
23496;SDS011;11925;48.122;11.560;2022-07-15T01:45:41;7.35;;;4.63;;
23496;SDS011;11925;48.122;11.560;2022-07-15T01:48:13;5.13;;;3.92;;
23496;SDS011;11925;48.122;11.560;2022-07-15T01:51:10;8.75;;;4.35;;
23496;SDS011;11925;48.122;11.560;2022-07-15T01:53:41;7.60;;;5.03;;
23496;SDS011;11925;48.122;11.560;2022-07-15T01:56:09;7.78;;;5.25;;
23496;SDS011;11925;48.122;11.560;2022-07-15T01:58:38;7.90;;;5.25;;
23496;SDS011;11925;48.122;11.560;2022-07-15T02:03:38;6.38;;;4.32;;
23496;SDS011;11925;48.122;11.560;2022-07-15T02:06:07;7.68;;;4.53;;
23496;SDS011;11925;48.122;11.560;2022-07-15T02:08:37;4.88;;;4.03;;
23496;SDS011;11925;48.122;11.560;2022-07-15T02:11:11;6.18;;;3.90;;
23496;SDS011;11925;48.122;11.560;2022-07-15T02:13:43;4.60;;;4.20;;
23496;SDS011;11925;48.122;11.560;2022-07-15T02:16:14;5.85;;;4.53;;
23496;SDS011;11925;48.122;11.560;2022-07-15T02:18:43;6.53;;;4.50;;
23496;SDS011;11925;48.122;11.560;2022-07-15T02:21:12;5.53;;;4.35;;
23496;SDS011;11925;48.122;11.560;2022-07-15T02:23:41;9.50;;;4.97;;
23496;SDS011;11925;48.122;11.560;2022-07-15T02:26:11;6.35;;;4.60;;
23496;SDS011;11925;48.122;11.560;2022-07-15T02:28:40;5.25;;;4.18;;
23496;SDS011;11925;48.122;11.560;2022-07-15T02:31:09;7.85;;;4.38;;
23496;SDS011;11925;48.122;11.560;2022-07-15T02:33:39;5.35;;;4.78;;
23496;SDS011;11925;48.122;11.560;2022-07-15T02:36:09;6.32;;;4.80;;
23496;SDS011;11925;48.122;11.560;2022-07-15T02:38:40;5.43;;;4.20;;
23496;SDS011;11925;48.122;11.560;2022-07-15T02:41:10;6.07;;;4.50;;
23496;SDS011;11925;48.122;11.560;2022-07-15T02:43:44;8.65;;;4.22;;
23496;SDS011;11925;48.122;11.560;2022-07-15T02:46:13;6.30;;;4.53;;
23496;SDS011;11925;48.122;11.560;2022-07-15T02:48:43;6.05;;;4.15;;
23496;SDS011;11925;48.122;11.560;2022-07-15T02:51:12;5.55;;;4.28;;
23496;SDS011;11925;48.122;11.560;2022-07-15T02:53:42;7.13;;;4.25;;
23496;SDS011;11925;48.122;11.560;2022-07-15T02:56:16;6.72;;;4.00;;
23496;SDS011;11925;48.122;11.560;2022-07-15T02:58:46;6.47;;;4.15;;
23496;SDS011;11925;48.122;11.560;2022-07-15T03:01:15;4.82;;;3.65;;
23496;SDS011;11925;48.122;11.560;2022-07-15T03:03:46;5.70;;;4.07;;
23496;SDS011;11925;48.122;11.560;2022-07-15T03:06:20;4.53;;;3.47;;
23496;SDS011;11925;48.122;11.560;2022-07-15T03:08:49;7.90;;;3.78;;
23496;SDS011;11925;48.122;11.560;2022-07-15T03:11:19;4.75;;;3.50;;
23496;SDS011;11925;48.122;11.560;2022-07-15T03:13:50;5.57;;;3.50;;
23496;SDS011;11925;48.122;11.560;2022-07-15T03:16:19;10.63;;;3.45;;
23496;SDS011;11925;48.122;11.560;2022-07-15T03:18:50;4.25;;;3.00;;
23496;SDS011;11925;48.122;11.560;2022-07-15T03:21:19;3.28;;;2.97;;
23496;SDS011;11925;48.122;11.560;2022-07-15T03:23:49;5.65;;;3.15;;
23496;SDS011;11925;48.122;11.560;2022-07-15T03:26:19;6.43;;;3.30;;
23496;SDS011;11925;48.122;11.560;2022-07-15T03:28:48;4.60;;;3.13;;
23496;SDS011;11925;48.122;11.560;2022-07-15T03:31:19;3.97;;;2.85;;
23496;SDS011;11925;48.122;11.560;2022-07-15T03:33:48;4.28;;;3.00;;
23496;SDS011;11925;48.122;11.560;2022-07-15T03:36:22;4.85;;;3.08;;
23496;SDS011;11925;48.122;11.560;2022-07-15T03:38:51;3.97;;;2.80;;
23496;SDS011;11925;48.122;11.560;2022-07-15T03:41:20;4.85;;;3.10;;
23496;SDS011;11925;48.122;11.560;2022-07-15T03:43:49;4.35;;;2.60;;
23496;SDS011;11925;48.122;11.560;2022-07-15T03:46:19;4.45;;;2.63;;
23496;SDS011;11925;48.122;11.560;2022-07-15T03:48:53;5.80;;;2.92;;
23496;SDS011;11925;48.122;11.560;2022-07-15T03:51:22;4.88;;;2.40;;
23496;SDS011;11925;48.122;11.560;2022-07-15T03:53:51;4.70;;;2.85;;
23496;SDS011;11925;48.122;11.560;2022-07-15T03:56:20;3.80;;;2.47;;
23496;SDS011;11925;48.122;11.560;2022-07-15T03:58:49;3.25;;;2.55;;
23496;SDS011;11925;48.122;11.560;2022-07-15T04:01:17;3.72;;;2.42;;
23496;SDS011;11925;48.122;11.560;2022-07-15T04:03:48;3.08;;;2.63;;
23496;SDS011;11925;48.122;11.560;2022-07-15T04:06:17;5.03;;;2.72;;
23496;SDS011;11925;48.122;11.560;2022-07-15T04:08:47;4.63;;;2.63;;
23496;SDS011;11925;48.122;11.560;2022-07-15T04:11:16;4.50;;;2.60;;
23496;SDS011;11925;48.122;11.560;2022-07-15T04:13:45;2.72;;;2.30;;
23496;SDS011;11925;48.122;11.560;2022-07-15T04:16:14;3.50;;;2.78;;
23496;SDS011;11925;48.122;11.560;2022-07-15T04:18:49;3.25;;;2.38;;
23496;SDS011;11925;48.122;11.560;2022-07-15T04:21:21;3.55;;;2.78;;
23496;SDS011;11925;48.122;11.560;2022-07-15T04:23:49;4.97;;;2.80;;
23496;SDS011;11925;48.122;11.560;2022-07-15T04:26:18;4.45;;;2.85;;
23496;SDS011;11925;48.122;11.560;2022-07-15T04:28:47;5.32;;;2.90;;
23496;SDS011;11925;48.122;11.560;2022-07-15T04:31:16;5.60;;;2.67;;
23496;SDS011;11925;48.122;11.560;2022-07-15T04:33:57;7.35;;;2.88;;
23496;SDS011;11925;48.122;11.560;2022-07-15T04:36:26;4.65;;;2.60;;
23496;SDS011;11925;48.122;11.560;2022-07-15T04:38:55;6.65;;;2.90;;
23496;SDS011;11925;48.122;11.560;2022-07-15T04:41:23;4.25;;;2.40;;
23496;SDS011;11925;48.122;11.560;2022-07-15T04:43:52;3.38;;;2.70;;
23496;SDS011;11925;48.122;11.560;2022-07-15T04:46:21;3.60;;;2.40;;
23496;SDS011;11925;48.122;11.560;2022-07-15T04:49:01;4.35;;;2.63;;
23496;SDS011;11925;48.122;11.560;2022-07-15T04:51:48;5.25;;;2.70;;
23496;SDS011;11925;48.122;11.560;2022-07-15T04:54:16;9.38;;;2.80;;
23496;SDS011;11925;48.122;11.560;2022-07-15T04:56:46;5.18;;;2.72;;
23496;SDS011;11925;48.122;11.560;2022-07-15T04:59:14;5.88;;;2.70;;
23496;SDS011;11925;48.122;11.560;2022-07-15T05:01:43;4.00;;;2.65;;
23496;SDS011;11925;48.122;11.560;2022-07-15T05:04:19;3.67;;;2.72;;
23496;SDS011;11925;48.122;11.560;2022-07-15T05:06:49;3.65;;;2.83;;
23496;SDS011;11925;48.122;11.560;2022-07-15T05:09:18;5.25;;;2.80;;
23496;SDS011;11925;48.122;11.560;2022-07-15T05:11:47;4.43;;;3.08;;
23496;SDS011;11925;48.122;11.560;2022-07-15T05:14:17;3.10;;;2.47;;
23496;SDS011;11925;48.122;11.560;2022-07-15T05:16:46;6.18;;;2.90;;
23496;SDS011;11925;48.122;11.560;2022-07-15T05:19:15;5.95;;;2.83;;
23496;SDS011;11925;48.122;11.560;2022-07-15T05:21:45;5.45;;;2.80;;
23496;SDS011;11925;48.122;11.560;2022-07-15T05:24:14;3.70;;;2.85;;
23496;SDS011;11925;48.122;11.560;2022-07-15T05:26:55;5.57;;;3.03;;
23496;SDS011;11925;48.122;11.560;2022-07-15T05:29:30;4.95;;;2.63;;
23496;SDS011;11925;48.122;11.560;2022-07-15T05:31:58;4.45;;;2.50;;
23496;SDS011;11925;48.122;11.560;2022-07-15T05:34:27;6.03;;;2.88;;
23496;SDS011;11925;48.122;11.560;2022-07-15T05:36:59;5.60;;;2.70;;
23496;SDS011;11925;48.122;11.560;2022-07-15T05:39:28;5.27;;;2.67;;
23496;SDS011;11925;48.122;11.560;2022-07-15T05:41:59;5.13;;;2.88;;
23496;SDS011;11925;48.122;11.560;2022-07-15T05:44:29;4.00;;;2.75;;
23496;SDS011;11925;48.122;11.560;2022-07-15T05:46:58;5.25;;;2.60;;
23496;SDS011;11925;48.122;11.560;2022-07-15T05:49:28;3.20;;;2.35;;
23496;SDS011;11925;48.122;11.560;2022-07-15T05:51:56;5.07;;;3.05;;
23496;SDS011;11925;48.122;11.560;2022-07-15T05:54:26;4.32;;;2.58;;
23496;SDS011;11925;48.122;11.560;2022-07-15T05:56:56;4.97;;;2.92;;
23496;SDS011;11925;48.122;11.560;2022-07-15T05:59:25;4.43;;;2.75;;
23496;SDS011;11925;48.122;11.560;2022-07-15T06:01:53;3.13;;;2.20;;
23496;SDS011;11925;48.122;11.560;2022-07-15T06:04:22;7.25;;;2.90;;
23496;SDS011;11925;48.122;11.560;2022-07-15T06:06:53;5.63;;;2.38;;
23496;SDS011;11925;48.122;11.560;2022-07-15T06:09:22;3.75;;;2.42;;
23496;SDS011;11925;48.122;11.560;2022-07-15T06:11:54;3.60;;;2.55;;
23496;SDS011;11925;48.122;11.560;2022-07-15T06:14:24;8.38;;;2.88;;
23496;SDS011;11925;48.122;11.560;2022-07-15T06:17:00;6.40;;;3.13;;
23496;SDS011;11925;48.122;11.560;2022-07-15T06:19:29;3.72;;;3.17;;
23496;SDS011;11925;48.122;11.560;2022-07-15T06:21:59;3.08;;;2.42;;
23496;SDS011;11925;48.122;11.560;2022-07-15T06:24:29;4.75;;;2.85;;
23496;SDS011;11925;48.122;11.560;2022-07-15T06:26:59;4.55;;;2.50;;
23496;SDS011;11925;48.122;11.560;2022-07-15T06:29:27;6.25;;;2.58;;
23496;SDS011;11925;48.122;11.560;2022-07-15T06:31:56;4.90;;;2.55;;
23496;SDS011;11925;48.122;11.560;2022-07-15T06:34:25;4.20;;;2.70;;
23496;SDS011;11925;48.122;11.560;2022-07-15T06:36:54;3.47;;;2.55;;
23496;SDS011;11925;48.122;11.560;2022-07-15T06:39:24;4.45;;;2.50;;
23496;SDS011;11925;48.122;11.560;2022-07-15T06:41:53;4.18;;;2.38;;
23496;SDS011;11925;48.122;11.560;2022-07-15T06:44:23;6.40;;;2.65;;
23496;SDS011;11925;48.122;11.560;2022-07-15T06:46:54;4.22;;;2.47;;
23496;SDS011;11925;48.122;11.560;2022-07-15T06:49:27;4.55;;;2.40;;
23496;SDS011;11925;48.122;11.560;2022-07-15T06:51:56;4.20;;;2.47;;
23496;SDS011;11925;48.122;11.560;2022-07-15T06:54:25;2.83;;;2.13;;
23496;SDS011;11925;48.122;11.560;2022-07-15T06:56:54;4.50;;;2.10;;
23496;SDS011;11925;48.122;11.560;2022-07-15T06:59:24;4.90;;;2.30;;
23496;SDS011;11925;48.122;11.560;2022-07-15T07:01:53;6.20;;;2.58;;
23496;SDS011;11925;48.122;11.560;2022-07-15T07:04:22;5.28;;;2.40;;
23496;SDS011;11925;48.122;11.560;2022-07-15T07:06:51;5.30;;;2.45;;
23496;SDS011;11925;48.122;11.560;2022-07-15T07:09:20;6.32;;;2.97;;
23496;SDS011;11925;48.122;11.560;2022-07-15T07:11:50;3.65;;;2.20;;
23496;SDS011;11925;48.122;11.560;2022-07-15T07:14:19;5.38;;;2.40;;
23496;SDS011;11925;48.122;11.560;2022-07-15T07:16:49;6.38;;;2.53;;
23496;SDS011;11925;48.122;11.560;2022-07-15T07:19:18;5.57;;;2.90;;
23496;SDS011;11925;48.122;11.560;2022-07-15T07:21:47;2.88;;;1.92;;
23496;SDS011;11925;48.122;11.560;2022-07-15T07:24:15;5.57;;;2.42;;
23496;SDS011;11925;48.122;11.560;2022-07-15T07:26:44;3.45;;;1.85;;
23496;SDS011;11925;48.122;11.560;2022-07-15T07:29:13;4.15;;;2.10;;
23496;SDS011;11925;48.122;11.560;2022-07-15T07:31:50;3.25;;;2.00;;
23496;SDS011;11925;48.122;11.560;2022-07-15T07:34:19;4.05;;;1.90;;
23496;SDS011;11925;48.122;11.560;2022-07-15T07:36:48;4.72;;;2.03;;
23496;SDS011;11925;48.122;11.560;2022-07-15T07:39:17;4.50;;;2.13;;
23496;SDS011;11925;48.122;11.560;2022-07-15T07:41:47;4.78;;;2.05;;
23496;SDS011;11925;48.122;11.560;2022-07-15T07:44:19;3.20;;;1.98;;
23496;SDS011;11925;48.122;11.560;2022-07-15T07:46:49;2.88;;;1.80;;
23496;SDS011;11925;48.122;11.560;2022-07-15T07:49:18;3.75;;;2.00;;
23496;SDS011;11925;48.122;11.560;2022-07-15T07:52:03;2.83;;;1.90;;
23496;SDS011;11925;48.122;11.560;2022-07-15T07:54:32;4.43;;;2.13;;
23496;SDS011;11925;48.122;11.560;2022-07-15T07:57:02;4.13;;;2.13;;
23496;SDS011;11925;48.122;11.560;2022-07-15T07:59:30;5.32;;;2.05;;
23496;SDS011;11925;48.122;11.560;2022-07-15T08:02:00;5.47;;;2.20;;
23496;SDS011;11925;48.122;11.560;2022-07-15T08:04:30;3.20;;;1.70;;
23496;SDS011;11925;48.122;11.560;2022-07-15T08:06:59;3.75;;;2.22;;
23496;SDS011;11925;48.122;11.560;2022-07-15T08:09:28;4.28;;;1.88;;
23496;SDS011;11925;48.122;11.560;2022-07-15T08:11:56;5.07;;;2.20;;
23496;SDS011;11925;48.122;11.560;2022-07-15T08:14:25;4.22;;;2.03;;
23496;SDS011;11925;48.122;11.560;2022-07-15T08:16:55;4.03;;;2.05;;
23496;SDS011;11925;48.122;11.560;2022-07-15T08:19:25;3.80;;;2.00;;
23496;SDS011;11925;48.122;11.560;2022-07-15T08:21:54;4.35;;;2.25;;
23496;SDS011;11925;48.122;11.560;2022-07-15T08:24:22;3.45;;;1.90;;
23496;SDS011;11925;48.122;11.560;2022-07-15T08:26:51;4.20;;;2.03;;
23496;SDS011;11925;48.122;11.560;2022-07-15T08:29:20;3.30;;;1.98;;
23496;SDS011;11925;48.122;11.560;2022-07-15T08:31:48;4.13;;;2.45;;
23496;SDS011;11925;48.122;11.560;2022-07-15T08:34:17;4.32;;;2.28;;
23496;SDS011;11925;48.122;11.560;2022-07-15T08:36:47;5.35;;;2.05;;
23496;SDS011;11925;48.122;11.560;2022-07-15T08:39:16;4.80;;;2.15;;
23496;SDS011;11925;48.122;11.560;2022-07-15T08:41:44;3.60;;;2.40;;
23496;SDS011;11925;48.122;11.560;2022-07-15T08:44:13;5.75;;;2.55;;
23496;SDS011;11925;48.122;11.560;2022-07-15T08:46:43;4.63;;;3.05;;
23496;SDS011;11925;48.122;11.560;2022-07-15T08:49:15;5.28;;;2.50;;
23496;SDS011;11925;48.122;11.560;2022-07-15T08:54:15;3.95;;;2.40;;
23496;SDS011;11925;48.122;11.560;2022-07-15T08:56:45;6.30;;;2.83;;
23496;SDS011;11925;48.122;11.560;2022-07-15T08:59:13;5.18;;;2.50;;
23496;SDS011;11925;48.122;11.560;2022-07-15T09:01:45;5.00;;;2.63;;
23496;SDS011;11925;48.122;11.560;2022-07-15T09:04:15;3.83;;;2.40;;
23496;SDS011;11925;48.122;11.560;2022-07-15T09:06:45;3.35;;;2.25;;
23496;SDS011;11925;48.122;11.560;2022-07-15T09:09:26;5.25;;;2.47;;
23496;SDS011;11925;48.122;11.560;2022-07-15T09:12:04;4.22;;;2.92;;
23496;SDS011;11925;48.122;11.560;2022-07-15T09:14:42;4.35;;;2.70;;
23496;SDS011;11925;48.122;11.560;2022-07-15T09:17:20;4.97;;;2.85;;
23496;SDS011;11925;48.122;11.560;2022-07-15T09:19:57;4.28;;;2.47;;
23496;SDS011;11925;48.122;11.560;2022-07-15T09:22:27;5.65;;;2.70;;
23496;SDS011;11925;48.122;11.560;2022-07-15T09:25:05;3.63;;;2.20;;
23496;SDS011;11925;48.122;11.560;2022-07-15T09:27:35;4.72;;;2.80;;
23496;SDS011;11925;48.122;11.560;2022-07-15T09:30:18;3.53;;;2.47;;
23496;SDS011;11925;48.122;11.560;2022-07-15T09:33:05;5.60;;;2.55;;
23496;SDS011;11925;48.122;11.560;2022-07-15T09:35:51;4.07;;;2.60;;
23496;SDS011;11925;48.122;11.560;2022-07-15T09:38:33;5.38;;;2.30;;
23496;SDS011;11925;48.122;11.560;2022-07-15T09:41:04;5.45;;;2.80;;
23496;SDS011;11925;48.122;11.560;2022-07-15T09:43:41;6.18;;;2.78;;
23496;SDS011;11925;48.122;11.560;2022-07-15T09:46:10;5.15;;;2.70;;
23496;SDS011;11925;48.122;11.560;2022-07-15T09:48:40;4.55;;;2.88;;
23496;SDS011;11925;48.122;11.560;2022-07-15T09:51:09;3.85;;;2.95;;
23496;SDS011;11925;48.122;11.560;2022-07-15T09:53:38;6.55;;;2.80;;
23496;SDS011;11925;48.122;11.560;2022-07-15T09:56:09;6.93;;;3.35;;
23496;SDS011;11925;48.122;11.560;2022-07-15T09:58:39;4.22;;;2.50;;
23496;SDS011;11925;48.122;11.560;2022-07-15T10:01:08;5.10;;;2.70;;
23496;SDS011;11925;48.122;11.560;2022-07-15T10:03:37;4.35;;;2.92;;
23496;SDS011;11925;48.122;11.560;2022-07-15T10:06:06;5.63;;;2.72;;
23496;SDS011;11925;48.122;11.560;2022-07-15T10:08:35;5.25;;;2.95;;
23496;SDS011;11925;48.122;11.560;2022-07-15T10:11:06;5.95;;;2.80;;
23496;SDS011;11925;48.122;11.560;2022-07-15T10:13:54;4.93;;;2.90;;
23496;SDS011;11925;48.122;11.560;2022-07-15T10:19:14;4.78;;;2.80;;
23496;SDS011;11925;48.122;11.560;2022-07-15T10:21:49;7.38;;;2.83;;
23496;SDS011;11925;48.122;11.560;2022-07-15T10:24:34;3.95;;;2.85;;
23496;SDS011;11925;48.122;11.560;2022-07-15T10:27:20;4.55;;;2.90;;
23496;SDS011;11925;48.122;11.560;2022-07-15T10:29:54;5.57;;;3.25;;
23496;SDS011;11925;48.122;11.560;2022-07-15T10:32:23;6.13;;;3.33;;
23496;SDS011;11925;48.122;11.560;2022-07-15T10:34:52;7.50;;;3.60;;
23496;SDS011;11925;48.122;11.560;2022-07-15T10:37:20;6.82;;;3.55;;
23496;SDS011;11925;48.122;11.560;2022-07-15T10:39:54;4.93;;;3.30;;
23496;SDS011;11925;48.122;11.560;2022-07-15T10:42:31;5.75;;;3.13;;
23496;SDS011;11925;48.122;11.560;2022-07-15T10:45:20;4.97;;;2.88;;
23496;SDS011;11925;48.122;11.560;2022-07-15T10:47:49;5.80;;;3.42;;
23496;SDS011;11925;48.122;11.560;2022-07-15T10:50:38;6.38;;;3.10;;
23496;SDS011;11925;48.122;11.560;2022-07-15T10:53:18;8.27;;;3.47;;
23496;SDS011;11925;48.122;11.560;2022-07-15T10:55:48;6.70;;;3.53;;
23496;SDS011;11925;48.122;11.560;2022-07-15T10:58:17;7.07;;;3.47;;
23496;SDS011;11925;48.122;11.560;2022-07-15T11:00:47;5.40;;;2.75;;
23496;SDS011;11925;48.122;11.560;2022-07-15T11:03:16;5.28;;;2.88;;
23496;SDS011;11925;48.122;11.560;2022-07-15T11:06:03;6.00;;;2.40;;
23496;SDS011;11925;48.122;11.560;2022-07-15T11:08:47;4.85;;;2.95;;
23496;SDS011;11925;48.122;11.560;2022-07-15T11:14:04;6.65;;;3.08;;
23496;SDS011;11925;48.122;11.560;2022-07-15T11:16:57;8.07;;;3.40;;
23496;SDS011;11925;48.122;11.560;2022-07-15T11:19:25;7.78;;;3.33;;
23496;SDS011;11925;48.122;11.560;2022-07-15T11:21:56;6.57;;;3.50;;
23496;SDS011;11925;48.122;11.560;2022-07-15T11:24:25;6.72;;;3.38;;
23496;SDS011;11925;48.122;11.560;2022-07-15T11:26:54;5.50;;;3.05;;
23496;SDS011;11925;48.122;11.560;2022-07-15T11:29:23;4.38;;;3.25;;
23496;SDS011;11925;48.122;11.560;2022-07-15T11:31:51;5.78;;;3.00;;
23496;SDS011;11925;48.122;11.560;2022-07-15T11:34:22;7.22;;;3.60;;
23496;SDS011;11925;48.122;11.560;2022-07-15T11:36:57;7.22;;;3.38;;
23496;SDS011;11925;48.122;11.560;2022-07-15T11:39:29;4.47;;;3.50;;
23496;SDS011;11925;48.122;11.560;2022-07-15T11:41:57;3.83;;;3.03;;
23496;SDS011;11925;48.122;11.560;2022-07-15T11:44:45;5.15;;;3.13;;
23496;SDS011;11925;48.122;11.560;2022-07-15T11:47:13;4.20;;;2.90;;
23496;SDS011;11925;48.122;11.560;2022-07-15T11:49:43;5.22;;;3.10;;
23496;SDS011;11925;48.122;11.560;2022-07-15T11:52:21;6.10;;;3.47;;
23496;SDS011;11925;48.122;11.560;2022-07-15T11:54:50;4.97;;;3.47;;
23496;SDS011;11925;48.122;11.560;2022-07-15T11:57:19;6.10;;;3.20;;
23496;SDS011;11925;48.122;11.560;2022-07-15T11:59:51;4.43;;;3.17;;
23496;SDS011;11925;48.122;11.560;2022-07-15T12:02:23;5.07;;;3.20;;
23496;SDS011;11925;48.122;11.560;2022-07-15T12:04:55;4.60;;;3.30;;
23496;SDS011;11925;48.122;11.560;2022-07-15T12:07:41;4.35;;;2.60;;
23496;SDS011;11925;48.122;11.560;2022-07-15T12:10:11;5.68;;;3.33;;
23496;SDS011;11925;48.122;11.560;2022-07-15T12:12:41;4.90;;;3.22;;
23496;SDS011;11925;48.122;11.560;2022-07-15T12:15:09;4.13;;;2.97;;
23496;SDS011;11925;48.122;11.560;2022-07-15T12:17:39;4.05;;;3.20;;
23496;SDS011;11925;48.122;11.560;2022-07-15T12:20:10;5.28;;;3.08;;
23496;SDS011;11925;48.122;11.560;2022-07-15T12:25:22;4.18;;;3.33;;
23496;SDS011;11925;48.122;11.560;2022-07-15T12:27:51;5.55;;;3.25;;
23496;SDS011;11925;48.122;11.560;2022-07-15T12:30:19;3.90;;;3.08;;
23496;SDS011;11925;48.122;11.560;2022-07-15T12:33:12;4.82;;;3.13;;
23496;SDS011;11925;48.122;11.560;2022-07-15T12:35:42;5.50;;;2.97;;
23496;SDS011;11925;48.122;11.560;2022-07-15T12:38:17;5.57;;;3.08;;
23496;SDS011;11925;48.122;11.560;2022-07-15T12:40:53;5.00;;;3.17;;
23496;SDS011;11925;48.122;11.560;2022-07-15T12:43:30;5.55;;;3.15;;
23496;SDS011;11925;48.122;11.560;2022-07-15T12:46:13;6.10;;;3.35;;
23496;SDS011;11925;48.122;11.560;2022-07-15T12:48:43;4.65;;;3.15;;
23496;SDS011;11925;48.122;11.560;2022-07-15T12:51:14;6.07;;;3.00;;
23496;SDS011;11925;48.122;11.560;2022-07-15T12:53:44;5.95;;;3.40;;
23496;SDS011;11925;48.122;11.560;2022-07-15T12:56:13;6.00;;;2.95;;
23496;SDS011;11925;48.122;11.560;2022-07-15T12:58:42;3.92;;;3.15;;
23496;SDS011;11925;48.122;11.560;2022-07-15T13:01:12;5.95;;;3.70;;
23496;SDS011;11925;48.122;11.560;2022-07-15T13:03:41;5.78;;;3.55;;
23496;SDS011;11925;48.122;11.560;2022-07-15T13:06:10;4.60;;;2.92;;
23496;SDS011;11925;48.122;11.560;2022-07-15T13:08:42;4.03;;;3.30;;
23496;SDS011;11925;48.122;11.560;2022-07-15T13:11:11;6.00;;;3.97;;
23496;SDS011;11925;48.122;11.560;2022-07-15T13:13:40;6.03;;;3.95;;
23496;SDS011;11925;48.122;11.560;2022-07-15T13:16:09;6.20;;;3.40;;
23496;SDS011;11925;48.122;11.560;2022-07-15T13:18:39;5.20;;;3.55;;
23496;SDS011;11925;48.122;11.560;2022-07-15T13:21:08;8.30;;;3.63;;
23496;SDS011;11925;48.122;11.560;2022-07-15T13:23:37;5.50;;;3.40;;
23496;SDS011;11925;48.122;11.560;2022-07-15T13:26:07;5.95;;;3.08;;
23496;SDS011;11925;48.122;11.560;2022-07-15T13:28:35;5.63;;;3.70;;
23496;SDS011;11925;48.122;11.560;2022-07-15T13:31:04;4.70;;;3.03;;
23496;SDS011;11925;48.122;11.560;2022-07-15T13:33:33;8.88;;;3.40;;
23496;SDS011;11925;48.122;11.560;2022-07-15T13:36:08;5.03;;;3.00;;
23496;SDS011;11925;48.122;11.560;2022-07-15T13:38:37;5.57;;;3.03;;
23496;SDS011;11925;48.122;11.560;2022-07-15T13:41:07;4.07;;;2.72;;
23496;SDS011;11925;48.122;11.560;2022-07-15T13:43:36;4.63;;;2.97;;
23496;SDS011;11925;48.122;11.560;2022-07-15T13:46:05;4.97;;;3.00;;
23496;SDS011;11925;48.122;11.560;2022-07-15T13:48:34;4.47;;;3.03;;
23496;SDS011;11925;48.122;11.560;2022-07-15T13:51:02;5.38;;;3.20;;
23496;SDS011;11925;48.122;11.560;2022-07-15T13:53:48;6.35;;;3.25;;
23496;SDS011;11925;48.122;11.560;2022-07-15T13:56:19;4.57;;;3.53;;
23496;SDS011;11925;48.122;11.560;2022-07-15T13:58:48;8.70;;;3.28;;
23496;SDS011;11925;48.122;11.560;2022-07-15T14:01:17;4.30;;;3.00;;
23496;SDS011;11925;48.122;11.560;2022-07-15T14:03:45;8.30;;;2.90;;
23496;SDS011;11925;48.122;11.560;2022-07-15T14:06:14;4.60;;;2.95;;
23496;SDS011;11925;48.122;11.560;2022-07-15T14:08:44;5.43;;;3.08;;
23496;SDS011;11925;48.122;11.560;2022-07-15T14:11:12;4.45;;;3.28;;
23496;SDS011;11925;48.122;11.560;2022-07-15T14:13:43;3.97;;;2.90;;
23496;SDS011;11925;48.122;11.560;2022-07-15T14:16:12;4.80;;;2.70;;
23496;SDS011;11925;48.122;11.560;2022-07-15T14:18:41;7.15;;;3.60;;
23496;SDS011;11925;48.122;11.560;2022-07-15T14:21:12;4.45;;;3.20;;
23496;SDS011;11925;48.122;11.560;2022-07-15T14:23:42;4.25;;;3.08;;
23496;SDS011;11925;48.122;11.560;2022-07-15T14:26:11;4.55;;;2.90;;
23496;SDS011;11925;48.122;11.560;2022-07-15T14:28:41;4.72;;;3.00;;
23496;SDS011;11925;48.122;11.560;2022-07-15T14:31:11;4.97;;;3.08;;
23496;SDS011;11925;48.122;11.560;2022-07-15T14:33:40;3.78;;;3.03;;
23496;SDS011;11925;48.122;11.560;2022-07-15T14:36:09;4.43;;;3.30;;
23496;SDS011;11925;48.122;11.560;2022-07-15T14:38:38;4.32;;;3.13;;
23496;SDS011;11925;48.122;11.560;2022-07-15T14:41:08;5.15;;;2.70;;
23496;SDS011;11925;48.122;11.560;2022-07-15T14:43:37;4.38;;;2.80;;
23496;SDS011;11925;48.122;11.560;2022-07-15T14:46:05;4.60;;;3.00;;
23496;SDS011;11925;48.122;11.560;2022-07-15T14:48:36;4.50;;;3.05;;
23496;SDS011;11925;48.122;11.560;2022-07-15T14:51:05;5.63;;;3.25;;
23496;SDS011;11925;48.122;11.560;2022-07-15T14:53:33;3.83;;;2.85;;
23496;SDS011;11925;48.122;11.560;2022-07-15T14:56:02;5.03;;;2.70;;
23496;SDS011;11925;48.122;11.560;2022-07-15T14:58:31;3.53;;;2.83;;
23496;SDS011;11925;48.122;11.560;2022-07-15T15:01:00;5.95;;;2.80;;
23496;SDS011;11925;48.122;11.560;2022-07-15T15:03:28;4.80;;;2.90;;
23496;SDS011;11925;48.122;11.560;2022-07-15T15:05:59;3.30;;;3.00;;
23496;SDS011;11925;48.122;11.560;2022-07-15T15:08:28;6.93;;;3.00;;